createdAt,value
2023-05-17T00:01:51.070Z,101340.16
2023-05-17T00:04:37.743Z,101331.31
2023-05-17T00:07:24.371Z,101339.22
2023-05-17T00:10:12.121Z,101323.41
2023-05-17T00:12:58.927Z,101335.72
2023-05-17T00:15:46.993Z,101329.56
2023-05-17T00:18:33.946Z,101329.47
2023-05-17T00:21:20.856Z,101338.41
2023-05-17T00:24:09.339Z,101339.28
2023-05-17T00:26:56.015Z,101334.91
2023-05-17T00:29:43.015Z,101334.09
2023-05-17T00:32:32.327Z,101331.41
2023-05-17T00:35:18.678Z,101331.50
2023-05-17T00:38:05.809Z,101339.47
2023-05-17T00:40:54.259Z,101331.53
2023-05-17T00:43:41.477Z,101326.16
2023-05-17T00:46:29.498Z,101327.97
2023-05-17T00:49:20.743Z,101333.38
2023-05-17T00:52:08.114Z,101335.06
2023-05-17T00:54:55.654Z,101333.31
2023-05-17T00:57:42.355Z,101333.28
2023-05-17T01:00:29.038Z,101329.81
2023-05-17T01:03:16.626Z,101332.28
2023-05-17T01:06:06.262Z,101327.00
2023-05-17T01:08:55.292Z,101329.63
2023-05-17T01:11:56.054Z,101332.06
2023-05-17T01:14:52.666Z,101322.63
2023-05-17T01:17:50.491Z,101344.50
2023-05-17T01:20:41.964Z,101340.91
2023-05-17T01:23:46.388Z,101340.00
2023-05-17T01:26:40.207Z,101335.63
2023-05-17T01:29:29.762Z,101338.34
2023-05-17T01:32:21.487Z,101340.78
2023-05-17T01:35:13.651Z,101333.97
2023-05-17T01:38:02.880Z,101346.28
2023-05-17T01:41:00.406Z,101354.31
2023-05-17T01:44:01.641Z,101349.94
2023-05-17T01:46:53.992Z,101354.38
2023-05-17T01:49:42.855Z,101349.06
2023-05-17T01:52:36.645Z,101346.50
2023-05-17T01:55:28.195Z,101349.94
2023-05-17T01:58:17.302Z,101351.88
2023-05-17T02:01:07.450Z,101357.16
2023-05-17T02:03:54.552Z,101352.72
2023-05-17T02:06:41.242Z,101359.88
2023-05-17T02:09:28.431Z,101359.88
2023-05-17T02:12:15.235Z,101358.91
2023-05-17T02:15:01.796Z,101359.88
2023-05-17T02:17:50.357Z,101361.66
2023-05-17T02:20:37.160Z,101360.75
2023-05-17T02:23:25.332Z,101352.75
2023-05-17T02:26:15.308Z,101353.56
2023-05-17T02:29:01.968Z,101351.72
2023-05-17T02:31:51.448Z,101348.91
2023-05-17T02:34:39.599Z,101342.50
2023-05-17T02:37:27.098Z,101338.31
2023-05-17T02:40:20.400Z,101337.19
2023-05-17T02:43:12.709Z,101340.69
2023-05-17T02:46:00.312Z,101341.31
2023-05-17T02:48:48.052Z,101339.47
2023-05-17T02:51:36.318Z,101342.81
2023-05-17T02:54:24.931Z,101343.63
2023-05-17T02:57:12.643Z,101345.13
2023-05-17T02:59:59.232Z,101344.16
2023-05-17T03:02:47.201Z,101351.91
2023-05-17T03:05:35.057Z,101356.44
2023-05-17T03:08:22.945Z,101356.59
2023-05-17T03:11:09.906Z,101363.16
2023-05-17T03:13:56.863Z,101359.63
2023-05-17T03:16:46.812Z,101349.28
2023-05-17T03:19:34.709Z,101366.03
2023-05-17T03:22:21.606Z,101364.13
2023-05-17T03:25:10.703Z,101378.22
2023-05-17T03:27:57.206Z,101371.28
2023-05-17T03:30:44.581Z,101369.41
2023-05-17T03:33:32.682Z,101371.91
2023-05-17T03:36:20.295Z,101368.97
2023-05-17T03:39:07.467Z,101381.31
2023-05-17T03:41:57.340Z,101370.88
2023-05-17T03:44:45.095Z,101364.53
2023-05-17T03:47:33.604Z,101375.13
2023-05-17T03:50:22.812Z,101382.53
2023-05-17T03:53:13.224Z,101386.16
2023-05-17T03:55:59.833Z,101392.22
2023-05-17T03:58:51.196Z,101389.66
2023-05-17T04:02:03.379Z,101398.09
2023-05-17T04:04:53.713Z,101410.34
2023-05-17T04:07:43.920Z,101409.41
2023-05-17T04:10:37.144Z,101407.56
2023-05-17T04:13:24.815Z,101418.75
2023-05-17T04:16:16.088Z,101421.31
2023-05-17T04:19:05.788Z,101414.94
2023-05-17T04:21:55.652Z,101419.84
2023-05-17T04:24:48.111Z,101420.88
2023-05-17T04:27:35.005Z,101423.34
2023-05-17T04:30:24.255Z,101422.34
2023-05-17T04:33:14.468Z,101424.41
2023-05-17T04:36:04.219Z,101421.13
2023-05-17T04:38:52.327Z,101426.75
2023-05-17T04:41:46.059Z,101430.16
2023-05-17T04:44:43.190Z,101434.88
2023-05-17T04:47:31.901Z,101445.47
2023-05-17T04:50:22.713Z,101448.28
2023-05-17T04:53:13.410Z,101456.25
2023-05-17T04:56:00.764Z,101463.22
2023-05-17T04:58:47.951Z,101464.28
2023-05-17T05:01:37.229Z,101464.41
2023-05-17T05:04:26.851Z,101465.53
2023-05-17T05:07:23.537Z,101470.81
2023-05-17T05:10:14.637Z,101481.69
2023-05-17T05:13:06.758Z,101484.59
2023-05-17T05:15:54.738Z,101494.44
2023-05-17T05:18:42.834Z,101491.59
2023-05-17T05:21:35.057Z,101511.19
2023-05-17T05:24:29.412Z,101513.81
2023-05-17T05:27:20.620Z,101510.66
2023-05-17T05:30:09.955Z,101514.50
2023-05-17T05:33:01.176Z,101512.47
2023-05-17T05:35:49.741Z,101522.19
2023-05-17T05:38:52.433Z,101516.38
2023-05-17T05:41:49.595Z,101520.69
2023-05-17T05:44:48.918Z,101515.09
2023-05-17T05:47:45.048Z,101530.38
2023-05-17T05:50:38.514Z,101535.44
2023-05-17T05:53:38.842Z,101539.56
2023-05-17T05:56:32.851Z,101533.41
2023-05-17T05:59:23.568Z,101535.81
2023-05-17T06:02:12.291Z,101534.38
2023-05-17T06:05:01.154Z,101544.88
2023-05-17T06:07:47.701Z,101554.81
2023-05-17T06:10:36.849Z,101567.63
2023-05-17T06:13:24.030Z,101568.28
2023-05-17T06:16:21.672Z,101566.16
2023-05-17T06:19:14.156Z,101577.50
2023-05-17T06:22:01.183Z,101575.22
2023-05-17T06:24:47.966Z,101585.09
2023-05-17T06:27:37.125Z,101593.59
2023-05-17T06:30:28.069Z,101581.47
2023-05-17T06:33:22.023Z,101591.66
2023-05-17T06:36:09.221Z,101576.28
2023-05-17T06:39:00.321Z,101569.88
2023-05-17T06:41:47.004Z,101570.91
2023-05-17T06:44:47.916Z,101567.66
2023-05-17T06:47:37.401Z,101586.56
2023-05-17T06:50:35.952Z,101580.22
2023-05-17T06:53:24.872Z,101586.44
2023-05-17T06:56:11.335Z,101596.81
2023-05-17T06:58:58.328Z,101597.03
2023-05-17T07:01:45.085Z,101596.81
2023-05-17T07:04:36.886Z,101601.34
2023-05-17T07:07:26.819Z,101608.69
2023-05-17T07:10:17.708Z,101608.00
2023-05-17T07:13:06.746Z,101609.84
2023-05-17T07:15:53.224Z,101588.84
2023-05-17T07:18:40.014Z,101602.56
2023-05-17T07:21:26.957Z,101599.16
2023-05-17T07:24:17.396Z,101605.66
2023-05-17T07:27:04.098Z,101605.81
2023-05-17T07:29:53.106Z,101599.53
2023-05-17T07:32:43.418Z,101604.88
2023-05-17T07:35:31.343Z,101610.38
2023-05-17T07:38:19.094Z,101612.34
2023-05-17T07:41:11.916Z,101614.63
2023-05-17T07:44:01.126Z,101624.94
2023-05-17T07:46:50.138Z,101631.09
2023-05-17T07:49:39.281Z,101638.75
2023-05-17T07:52:27.190Z,101639.22
2023-05-17T07:55:21.288Z,101648.00
2023-05-17T07:58:14.203Z,101633.69
2023-05-17T08:01:04.398Z,101656.75
2023-05-17T08:03:51.364Z,101631.03
2023-05-17T08:06:38.520Z,101651.59
2023-05-17T08:09:25.253Z,101662.22
2023-05-17T08:12:12.280Z,101669.88
2023-05-17T08:15:00.441Z,101679.63
2023-05-17T08:17:49.275Z,101678.72
2023-05-17T08:20:37.805Z,101676.69
2023-05-17T08:23:24.550Z,101667.97
2023-05-17T08:26:13.095Z,101681.00
2023-05-17T08:29:01.731Z,101681.38
2023-05-17T08:31:50.057Z,101675.88
2023-05-17T08:34:39.230Z,101677.72
2023-05-17T08:37:27.277Z,101677.78
2023-05-17T08:40:15.219Z,101682.75
2023-05-17T08:43:03.466Z,101676.59
2023-05-17T08:45:51.386Z,101660.91
2023-05-17T08:48:50.922Z,101681.47
2023-05-17T08:51:41.595Z,101673.34
2023-05-17T08:54:30.092Z,101685.94
2023-05-17T08:57:19.733Z,101689.75
2023-05-17T09:00:14.686Z,101685.38
2023-05-17T09:03:01.520Z,101682.75
2023-05-17T09:05:57.339Z,101693.00
2023-05-17T09:08:44.533Z,101685.78
2023-05-17T09:11:33.969Z,101689.97
2023-05-17T09:14:20.825Z,101684.94
2023-05-17T09:17:08.880Z,101682.44
2023-05-17T09:19:56.417Z,101679.41
2023-05-17T09:22:46.900Z,101684.38
2023-05-17T09:25:34.379Z,101678.84
2023-05-17T09:28:21.420Z,101666.47
2023-05-17T09:31:09.006Z,101674.31
2023-05-17T09:33:58.396Z,101675.72
2023-05-17T09:36:45.349Z,101666.81
2023-05-17T09:39:33.616Z,101683.34
2023-05-17T09:42:20.366Z,101675.78
2023-05-17T09:45:12.167Z,101684.94
2023-05-17T09:48:01.007Z,101688.94
2023-05-17T09:50:49.466Z,101689.03
2023-05-17T09:53:40.829Z,101685.81
2023-05-17T09:56:31.007Z,101686.75
2023-05-17T09:59:17.956Z,101697.78
2023-05-17T10:02:32.938Z,101700.66
2023-05-17T10:05:21.126Z,101695.25
2023-05-17T10:08:08.585Z,101692.69
2023-05-17T10:11:01.939Z,101693.63
2023-05-17T10:14:01.717Z,101701.88
2023-05-17T10:16:50.030Z,101701.34
2023-05-17T10:19:38.059Z,101711.09
2023-05-17T10:22:25.109Z,101705.94
2023-05-17T10:25:12.661Z,101708.59
2023-05-17T10:28:00.014Z,101704.69
2023-05-17T10:30:54.070Z,101696.84
2023-05-17T10:33:43.327Z,101697.31
2023-05-17T10:36:32.455Z,101708.69
2023-05-17T10:39:22.199Z,101703.66
2023-05-17T10:42:15.290Z,101711.63
2023-05-17T10:45:05.932Z,101712.00
2023-05-17T10:47:58.907Z,101716.84
2023-05-17T10:51:00.707Z,101722.50
2023-05-17T10:54:11.820Z,101726.94
2023-05-17T10:57:08.835Z,101711.84
2023-05-17T11:00:00.003Z,101723.81
2023-05-17T11:02:49.293Z,101718.47
2023-05-17T11:05:45.364Z,101719.41
2023-05-17T11:08:32.347Z,101727.56
2023-05-17T11:11:22.259Z,101736.25
2023-05-17T11:14:11.936Z,101727.31
2023-05-17T11:16:58.669Z,101727.91
2023-05-17T11:20:07.526Z,101722.00
2023-05-17T11:22:59.572Z,101723.47
2023-05-17T11:25:49.334Z,101728.63
2023-05-17T11:28:36.106Z,101724.75
2023-05-17T11:31:30.908Z,101733.84
2023-05-17T11:34:21.868Z,101722.00
2023-05-17T11:37:15.313Z,101715.38
2023-05-17T11:40:08.879Z,101723.56
2023-05-17T11:43:13.114Z,101698.53
2023-05-17T11:46:02.559Z,101711.38
2023-05-17T11:48:51.102Z,101728.38
2023-05-17T11:51:38.455Z,101722.09
2023-05-17T11:54:29.098Z,101728.44
2023-05-17T11:57:23.725Z,101727.44
2023-05-17T12:00:12.039Z,101721.53
2023-05-17T12:03:19.972Z,101721.75
2023-05-17T12:06:17.363Z,101726.03
2023-05-17T12:09:07.206Z,101729.69
2023-05-17T12:11:56.138Z,101727.75
2023-05-17T12:14:45.751Z,101740.72
2023-05-17T12:17:40.815Z,101728.97
2023-05-17T12:20:33.941Z,101725.88
2023-05-17T12:23:27.562Z,101722.84
2023-05-17T12:26:22.332Z,101735.44
2023-05-17T12:29:12.155Z,101732.03
2023-05-17T12:32:05.444Z,101729.56
2023-05-17T12:34:52.153Z,101732.63
2023-05-17T12:37:43.413Z,101728.41
2023-05-17T12:40:30.898Z,101725.34
2023-05-17T12:43:31.950Z,101744.34
2023-05-17T12:46:20.672Z,101735.50
2023-05-17T12:49:12.171Z,101732.56
2023-05-17T12:52:08.274Z,101736.00
2023-05-17T12:54:57.282Z,101738.22
2023-05-17T12:57:51.929Z,101733.72
2023-05-17T13:00:38.804Z,101732.44
2023-05-17T13:03:25.805Z,101725.34
2023-05-17T13:06:16.508Z,101732.63
2023-05-17T13:09:05.993Z,101730.81
2023-05-17T13:11:53.432Z,101736.00
2023-05-17T13:14:45.378Z,101730.88
2023-05-17T13:17:44.954Z,101727.72
2023-05-17T13:20:33.995Z,101727.50
2023-05-17T13:23:27.143Z,101724.91
2023-05-17T13:26:16.301Z,101725.34
2023-05-17T13:29:05.882Z,101740.81
2023-05-17T13:31:53.548Z,101738.47
2023-05-17T13:34:43.179Z,101739.94
2023-05-17T13:37:30.125Z,101748.34
2023-05-17T13:40:19.747Z,101734.41
2023-05-17T13:43:10.471Z,101744.13
2023-05-17T13:45:59.098Z,101739.84
2023-05-17T13:48:47.673Z,101742.44
2023-05-17T13:51:36.821Z,101749.97
2023-05-17T13:54:23.788Z,101760.59
2023-05-17T13:57:17.562Z,101755.09
2023-05-17T14:00:07.139Z,101757.03
2023-05-17T14:02:53.931Z,101762.59
2023-05-17T14:05:43.676Z,101766.41
2023-05-17T14:08:30.316Z,101751.88
2023-05-17T14:11:19.408Z,101750.72
2023-05-17T14:14:09.677Z,101760.66
2023-05-17T14:16:56.330Z,101778.06
2023-05-17T14:19:43.106Z,101778.34
2023-05-17T14:22:29.876Z,101766.81
2023-05-17T14:25:19.271Z,101784.22
2023-05-17T14:28:05.996Z,101777.19
2023-05-17T14:30:59.126Z,101769.66
2023-05-17T14:33:46.123Z,101777.75
2023-05-17T14:36:35.796Z,101778.78
2023-05-17T14:39:22.410Z,101791.22
2023-05-17T14:42:09.306Z,101787.00
2023-05-17T14:44:56.117Z,101791.72
2023-05-17T14:47:44.556Z,101784.56
2023-05-17T14:50:33.997Z,101793.38
2023-05-17T14:53:20.863Z,101791.97
2023-05-17T14:56:08.186Z,101800.34
2023-05-17T14:58:54.873Z,101801.69
2023-05-17T15:01:42.393Z,101806.47
2023-05-17T15:04:33.240Z,101808.50
2023-05-17T15:07:19.916Z,101808.34
2023-05-17T15:10:08.515Z,101817.63
2023-05-17T15:12:57.475Z,101812.28
2023-05-17T15:15:46.926Z,101816.56
2023-05-17T15:18:35.777Z,101815.31
2023-05-17T15:21:26.621Z,101817.72
2023-05-17T15:24:17.749Z,101811.91
2023-05-17T15:27:15.638Z,101814.06
2023-05-17T15:30:11.291Z,101818.06
2023-05-17T15:33:02.733Z,101825.75
2023-05-17T15:35:50.726Z,101825.19
2023-05-17T15:38:40.227Z,101825.50
2023-05-17T15:41:32.539Z,101828.53
2023-05-17T15:44:27.033Z,101833.16
2023-05-17T15:47:14.210Z,101839.16
2023-05-17T15:50:02.365Z,101836.41
2023-05-17T15:52:51.300Z,101823.16
2023-05-17T15:55:41.890Z,101837.41
2023-05-17T15:58:33.484Z,101825.47
2023-05-17T16:01:20.614Z,101826.84
2023-05-17T16:04:11.878Z,101824.84
2023-05-17T16:07:02.774Z,101830.97
2023-05-17T16:09:51.550Z,101828.97
2023-05-17T16:12:54.863Z,101832.00
2023-05-17T16:15:43.214Z,101833.78
2023-05-17T16:18:33.251Z,101836.13
2023-05-17T16:21:27.434Z,101840.25
2023-05-17T16:24:15.209Z,101849.25
2023-05-17T16:27:02.200Z,101855.19
2023-05-17T16:29:51.626Z,101852.00
2023-05-17T16:32:41.342Z,101849.69
2023-05-17T16:35:31.707Z,101860.63
2023-05-17T16:38:19.259Z,101862.28
2023-05-17T16:41:06.183Z,101861.78
2023-05-17T16:43:55.548Z,101868.19
2023-05-17T16:46:50.571Z,101870.19
2023-05-17T16:49:41.463Z,101869.00
2023-05-17T16:52:30.542Z,101873.53
2023-05-17T16:55:19.438Z,101879.81
2023-05-17T16:58:08.533Z,101879.69
2023-05-17T17:01:02.767Z,101878.63
2023-05-17T17:03:50.855Z,101878.38
2023-05-17T17:06:40.377Z,101863.44
2023-05-17T17:09:26.924Z,101884.09
2023-05-17T17:12:24.710Z,101888.94
2023-05-17T17:15:13.297Z,101881.47
2023-05-17T17:18:00.330Z,101885.25
2023-05-17T17:20:49.732Z,101883.84
2023-05-17T17:23:39.102Z,101885.03
2023-05-17T17:26:26.373Z,101885.34
2023-05-17T17:29:17.309Z,101886.19
2023-05-17T17:32:05.025Z,101887.22
2023-05-17T17:34:52.386Z,101884.47
2023-05-17T17:37:43.025Z,101880.47
2023-05-17T17:40:30.199Z,101877.59
2023-05-17T17:43:17.303Z,101878.72
2023-05-17T17:46:06.982Z,101883.31
2023-05-17T17:48:56.555Z,101877.31
2023-05-17T17:51:44.006Z,101883.16
2023-05-17T17:54:35.623Z,101883.63
2023-05-17T17:57:23.100Z,101895.94
2023-05-17T18:00:21.523Z,101887.03
2023-05-17T18:03:12.385Z,101890.66
2023-05-17T18:05:58.882Z,101893.84
2023-05-17T18:08:45.576Z,101894.78
2023-05-17T18:11:33.841Z,101908.69
2023-05-17T18:14:21.960Z,101902.22
2023-05-17T18:17:10.626Z,101916.84
2023-05-17T18:19:59.457Z,101909.56
2023-05-17T18:22:48.423Z,101907.00
2023-05-17T18:25:35.134Z,101914.69
2023-05-17T18:28:37.541Z,101914.31
2023-05-17T18:31:32.096Z,101933.31
2023-05-17T18:34:33.488Z,101922.59
2023-05-17T18:37:20.308Z,101939.03
2023-05-17T18:40:08.448Z,101913.31
2023-05-17T18:42:57.702Z,101952.38
2023-05-17T18:45:45.726Z,101949.91
2023-05-17T18:48:41.017Z,101959.16
2023-05-17T18:51:30.150Z,101958.50
2023-05-17T18:54:18.998Z,101962.63
2023-05-17T18:57:08.353Z,101959.13
2023-05-17T18:59:55.317Z,101955.28
2023-05-17T19:02:43.734Z,101964.31
2023-05-17T19:05:34.472Z,101972.72
2023-05-17T19:08:21.484Z,101982.09
2023-05-17T19:11:08.425Z,101983.59
2023-05-17T19:13:59.509Z,101988.56
2023-05-17T19:16:48.295Z,101929.41
2023-05-17T19:19:43.634Z,102001.59
2023-05-17T19:22:33.173Z,102004.44
2023-05-17T19:25:22.319Z,102012.41
2023-05-17T19:28:11.568Z,102018.97
2023-05-17T19:31:00.593Z,102024.28
2023-05-17T19:33:47.623Z,102024.63
2023-05-17T19:36:35.903Z,102029.72
2023-05-17T19:39:24.843Z,102031.22
2023-05-17T19:42:11.463Z,102034.88
2023-05-17T19:45:05.366Z,102037.69
2023-05-17T19:47:54.681Z,102042.19
2023-05-17T19:50:52.874Z,102050.22
2023-05-17T19:53:53.628Z,102047.72
2023-05-17T19:56:43.884Z,102058.50
2023-05-17T19:59:34.943Z,102063.91
2023-05-17T20:02:23.268Z,102071.88
2023-05-17T20:05:12.632Z,102072.06
2023-05-17T20:07:59.354Z,102078.22
2023-05-17T20:10:47.834Z,102083.59
2023-05-17T20:13:40.291Z,102085.59
2023-05-17T20:16:28.147Z,102083.91
2023-05-17T20:19:17.046Z,102089.31
2023-05-17T20:22:05.963Z,102097.31
2023-05-17T20:24:57.683Z,102098.25
2023-05-17T20:27:49.219Z,102098.31
2023-05-17T20:30:38.465Z,102104.56
2023-05-17T20:33:27.720Z,102107.25
2023-05-17T20:36:15.403Z,102113.50
2023-05-17T20:39:02.319Z,102104.72
2023-05-17T20:41:53.842Z,102110.13
2023-05-17T20:44:44.228Z,102111.00
2023-05-17T20:47:33.951Z,102116.41
2023-05-17T20:50:22.822Z,102121.72
2023-05-17T20:53:11.686Z,102116.50
2023-05-17T20:55:59.085Z,102119.00
2023-05-17T20:58:46.124Z,102118.28
2023-05-17T21:01:34.376Z,102121.03
2023-05-17T21:04:21.281Z,102122.00
2023-05-17T21:07:10.682Z,102128.19
2023-05-17T21:10:00.248Z,102137.00
2023-05-17T21:13:16.635Z,102121.28
2023-05-17T21:16:09.070Z,102126.66
2023-05-17T21:19:00.622Z,102124.00
2023-05-17T21:21:50.097Z,102124.91
2023-05-17T21:24:36.662Z,102129.38
2023-05-17T21:27:24.446Z,102130.22
2023-05-17T21:30:11.667Z,102125.84
2023-05-17T21:33:00.871Z,102128.50
2023-05-17T21:35:48.822Z,102136.47
2023-05-17T21:38:38.720Z,102125.94
2023-05-17T21:41:28.240Z,102129.50
2023-05-17T21:47:15.953Z,102130.41
2023-05-17T21:50:05.511Z,102119.88
2023-05-17T21:52:53.840Z,102129.56
2023-05-17T21:55:51.247Z,102127.81
2023-05-17T21:58:49.769Z,102126.91
2023-05-17T22:01:36.923Z,102127.78
2023-05-17T22:04:23.918Z,102128.66
2023-05-17T22:07:19.145Z,102129.56
2023-05-17T22:10:17.952Z,102132.22
2023-05-17T22:13:06.258Z,102134.84
2023-05-17T22:15:58.283Z,102138.44
2023-05-17T22:18:47.989Z,102126.94
2023-05-17T22:21:38.816Z,102136.59
2023-05-17T22:24:26.888Z,102134.03
2023-05-17T22:27:14.876Z,102142.84
2023-05-17T22:30:01.533Z,102138.44
2023-05-17T22:32:48.525Z,102134.03
2023-05-17T22:35:36.354Z,102142.84
2023-05-17T22:38:24.595Z,102141.97
2023-05-17T22:41:11.997Z,102145.47
2023-05-17T22:44:03.587Z,102139.34
2023-05-17T22:46:50.441Z,102147.25
2023-05-17T22:49:37.341Z,102148.13
2023-05-17T22:52:23.815Z,102143.72
2023-05-17T22:55:11.408Z,102159.56
2023-05-17T22:57:59.078Z,102151.66
2023-05-17T23:00:52.969Z,102161.34
2023-05-17T23:03:39.780Z,102163.09
2023-05-17T23:06:26.763Z,102162.22
2023-05-17T23:09:14.089Z,102162.22
2023-05-17T23:12:05.760Z,102165.75
2023-05-17T23:14:55.520Z,102164.84
2023-05-17T23:17:46.721Z,102163.09
2023-05-17T23:20:36.912Z,102163.09
2023-05-17T23:23:26.278Z,102156.91
2023-05-17T23:26:14.754Z,102163.06
2023-05-17T23:29:03.376Z,102160.44
2023-05-17T23:32:03.766Z,102165.72
2023-05-17T23:34:54.280Z,102165.72
2023-05-17T23:37:55.035Z,102160.44
2023-05-17T23:40:57.309Z,102161.31
2023-05-17T23:43:44.536Z,102166.59
2023-05-17T23:46:53.789Z,102163.94
2023-05-17T23:49:46.529Z,102161.31
2023-05-17T23:52:40.820Z,102167.47
2023-05-17T23:55:27.732Z,102174.50
2023-05-17T23:58:16.723Z,102177.13
